sensor_id;sensor_type;location;lat;lon;timestamp;pressure;altitude;pressure_sealevel;temperature;humidity
77537;BME280;67783;51.656;16.106;2023-12-20T00:01:33;101116.45;;;9.60;68.84
77537;BME280;67783;51.656;16.106;2023-12-20T00:04:35;101120.94;;;9.60;69.22
77537;BME280;67783;51.656;16.106;2023-12-20T00:07:40;101082.85;;;9.41;71.13
77537;BME280;67783;51.656;16.106;2023-12-20T00:10:42;101103.14;;;9.59;69.07
77537;BME280;67783;51.656;16.106;2023-12-20T00:13:44;101110.39;;;9.57;69.77
77537;BME280;67783;51.656;16.106;2023-12-20T00:16:45;101103.05;;;9.60;69.03
77537;BME280;67783;51.656;16.106;2023-12-20T00:19:47;101114.80;;;9.58;69.51
77537;BME280;67783;51.656;16.106;2023-12-20T00:22:48;101102.28;;;9.58;69.42
77537;BME280;67783;51.656;16.106;2023-12-20T00:25:50;101092.63;;;9.56;69.34
77537;BME280;67783;51.656;16.106;2023-12-20T00:28:55;101104.29;;;9.55;70.96
77537;BME280;67783;51.656;16.106;2023-12-20T00:31:56;101093.50;;;9.56;69.28
77537;BME280;67783;51.656;16.106;2023-12-20T00:34:58;101095.32;;;9.56;69.82
77537;BME280;67783;51.656;16.106;2023-12-20T00:37:59;101094.33;;;9.57;69.16
77537;BME280;67783;51.656;16.106;2023-12-20T00:41:01;101080.20;;;9.55;69.63
77537;BME280;67783;51.656;16.106;2023-12-20T00:44:03;101083.63;;;9.57;69.12
77537;BME280;67783;51.656;16.106;2023-12-20T00:47:04;101070.46;;;9.40;69.45
77537;BME280;67783;51.656;16.106;2023-12-20T00:50:09;101089.17;;;9.54;71.09
77537;BME280;67783;51.656;16.106;2023-12-20T00:53:11;101095.32;;;9.56;69.19
77537;BME280;67783;51.656;16.106;2023-12-20T00:56:13;101086.62;;;9.52;69.94
77537;BME280;67783;51.656;16.106;2023-12-20T00:59:16;101090.13;;;9.53;69.26
77537;BME280;67783;51.656;16.106;2023-12-20T01:02:18;101087.45;;;9.53;69.61
77537;BME280;67783;51.656;16.106;2023-12-20T01:05:30;101077.73;;;9.52;70.55
77537;BME280;67783;51.656;16.106;2023-12-20T01:08:32;101076.95;;;9.50;69.33
77537;BME280;67783;51.656;16.106;2023-12-20T01:11:36;101071.60;;;9.50;69.74
77537;BME280;67783;51.656;16.106;2023-12-20T01:14:37;101075.05;;;9.52;69.16
77537;BME280;67783;51.656;16.106;2023-12-20T01:17:40;101084.02;;;9.51;69.35
77537;BME280;67783;51.656;16.106;2023-12-20T01:20:51;101087.66;;;9.50;70.68
77537;BME280;67783;51.656;16.106;2023-12-20T01:23:52;101076.95;;;9.50;69.35
77537;BME280;67783;51.656;16.106;2023-12-20T01:26:54;101070.85;;;9.48;69.85
77537;BME280;67783;51.656;16.106;2023-12-20T01:29:55;101072.46;;;9.50;69.20
77537;BME280;67783;51.656;16.106;2023-12-20T01:32:57;101059.36;;;9.46;69.69
77537;BME280;67783;51.656;16.106;2023-12-20T01:35:58;101057.63;;;9.45;69.27
77537;BME280;67783;51.656;16.106;2023-12-20T01:39:00;101057.84;;;9.42;69.51
77537;BME280;67783;51.656;16.106;2023-12-20T01:42:05;101049.89;;;9.40;70.79
77537;BME280;67783;51.656;16.106;2023-12-20T01:45:08;101049.89;;;9.40;69.38
77537;BME280;67783;51.656;16.106;2023-12-20T01:48:10;101047.33;;;9.39;69.96
77537;BME280;67783;51.656;16.106;2023-12-20T01:51:12;101046.27;;;9.41;69.39
77537;BME280;67783;51.656;16.106;2023-12-20T01:54:14;101045.61;;;9.38;69.61
77537;BME280;67783;51.656;16.106;2023-12-20T01:57:15;101040.25;;;9.38;69.35
77537;BME280;67783;51.656;16.106;2023-12-20T02:00:18;101037.58;;;9.38;69.40
77537;BME280;67783;51.656;16.106;2023-12-20T02:03:24;101029.75;;;9.35;70.87
77537;BME280;67783;51.656;16.106;2023-12-20T02:06:29;101025.27;;;9.35;69.49
77537;BME280;67783;51.656;16.106;2023-12-20T02:09:35;101028.98;;;9.33;69.72
77537;BME280;67783;51.656;16.106;2023-12-20T02:12:36;101012.05;;;9.32;69.08
77537;BME280;67783;51.656;16.106;2023-12-20T02:15:38;101014.56;;;9.35;69.50
77537;BME280;67783;51.656;16.106;2023-12-20T02:18:43;101010.45;;;9.30;70.90
77537;BME280;67783;51.656;16.106;2023-12-20T02:21:45;101013.89;;;9.32;69.46
77537;BME280;67783;51.656;16.106;2023-12-20T02:24:47;101009.59;;;9.29;70.06
77537;BME280;67783;51.656;16.106;2023-12-20T02:27:49;101012.17;;;9.31;69.38
77537;BME280;67783;51.656;16.106;2023-12-20T02:30:51;101008.71;;;9.28;69.70
77537;BME280;67783;51.656;16.106;2023-12-20T02:33:52;101010.45;;;9.30;69.52
77537;BME280;67783;51.656;16.106;2023-12-20T02:36:54;101015.79;;;9.30;69.66
77537;BME280;67783;51.656;16.106;2023-12-20T02:39:58;101011.40;;;9.28;70.94
77537;BME280;67783;51.656;16.106;2023-12-20T02:43:00;100993.53;;;9.29;69.56
77537;BME280;67783;51.656;16.106;2023-12-20T02:46:02;100994.59;;;9.26;70.09
77537;BME280;67783;51.656;16.106;2023-12-20T02:49:03;100989.98;;;9.28;69.53
77537;BME280;67783;51.656;16.106;2023-12-20T02:52:05;100994.59;;;9.26;69.89
77537;BME280;67783;51.656;16.106;2023-12-20T02:55:06;100990.97;;;9.28;69.51
77537;BME280;67783;51.656;16.106;2023-12-20T02:58:08;100992.87;;;9.25;69.71
77537;BME280;67783;51.656;16.106;2023-12-20T03:01:13;100987.71;;;9.22;70.84
77537;BME280;67783;51.656;16.106;2023-12-20T03:04:15;100987.52;;;9.25;69.66
77537;BME280;67783;51.656;16.106;2023-12-20T03:07:17;100985.98;;;9.21;70.05
77537;BME280;67783;51.656;16.106;2023-12-20T03:10:19;100983.40;;;9.20;69.60
77537;BME280;67783;51.656;16.106;2023-12-20T03:13:20;100984.46;;;9.17;69.93
77537;BME280;67783;51.656;16.106;2023-12-20T03:16:22;100974.63;;;9.18;69.64
77537;BME280;67783;51.656;16.106;2023-12-20T03:19:24;100981.01;;;9.15;69.88
77537;BME280;67783;51.656;16.106;2023-12-20T03:22:29;100981.33;;;9.11;71.39
77537;BME280;67783;51.656;16.106;2023-12-20T03:25:30;100983.80;;;9.14;69.76
77537;BME280;67783;51.656;16.106;2023-12-20T03:28:32;100980.46;;;9.10;70.37
77537;BME280;67783;51.656;16.106;2023-12-20T03:31:33;100975.12;;;9.10;69.85
77537;BME280;67783;51.656;16.106;2023-12-20T03:34:35;100976.14;;;9.08;70.31
77537;BME280;67783;51.656;16.106;2023-12-20T03:37:36;100977.79;;;9.10;69.86
77537;BME280;67783;51.656;16.106;2023-12-20T03:40:38;100983.13;;;9.10;70.10
77537;BME280;67783;51.656;16.106;2023-12-20T03:43:43;100973.46;;;9.08;71.39
77537;BME280;67783;51.656;16.106;2023-12-20T03:46:45;100974.13;;;9.11;70.01
77537;BME280;67783;51.656;16.106;2023-12-20T03:49:47;100979.48;;;9.11;70.31
77537;BME280;67783;51.656;16.106;2023-12-20T03:52:48;100975.12;;;9.10;69.84
77537;BME280;67783;51.656;16.106;2023-12-20T03:55:50;100979.69;;;9.08;70.11
77537;BME280;67783;51.656;16.106;2023-12-20T03:58:51;100974.34;;;9.08;69.86
77537;BME280;67783;51.656;16.106;2023-12-20T04:01:53;100983.50;;;9.04;70.11
77537;BME280;67783;51.656;16.106;2023-12-20T04:04:58;100979.30;;;9.00;71.27
77537;BME280;67783;51.656;16.106;2023-12-20T04:08:01;100978.35;;;9.01;70.11
77537;BME280;67783;51.656;16.106;2023-12-20T04:11:05;100987.31;;;9.00;70.38
77537;BME280;67783;51.656;16.106;2023-12-20T04:14:06;100978.35;;;9.01;70.11
77537;BME280;67783;51.656;16.106;2023-12-20T04:17:08;100978.35;;;9.01;70.23
77537;BME280;67783;51.656;16.106;2023-12-20T04:20:19;100983.91;;;8.98;71.50
77537;BME280;67783;51.656;16.106;2023-12-20T04:23:20;100981.98;;;9.00;70.16
77537;BME280;67783;51.656;16.106;2023-12-20T04:26:22;100985.59;;;8.99;70.72
77537;BME280;67783;51.656;16.106;2023-12-20T04:29:23;100974.73;;;9.02;70.09
77537;BME280;67783;51.656;16.106;2023-12-20T04:32:25;100966.79;;;9.01;70.23
77537;BME280;67783;51.656;16.106;2023-12-20T04:35:26;100964.12;;;9.01;70.03
77537;BME280;67783;51.656;16.106;2023-12-20T04:38:28;100963.34;;;8.99;70.32
77537;BME280;67783;51.656;16.106;2023-12-20T04:41:33;100963.66;;;8.94;71.52
77537;BME280;67783;51.656;16.106;2023-12-20T04:44:35;100962.68;;;8.95;70.22
77537;BME280;67783;51.656;16.106;2023-12-20T04:47:36;100957.52;;;8.92;70.70
77537;BME280;67783;51.656;16.106;2023-12-20T04:50:38;100955.71;;;8.93;70.32
77537;BME280;67783;51.656;16.106;2023-12-20T04:53:39;100953.32;;;8.88;70.60
77537;BME280;67783;51.656;16.106;2023-12-20T04:56:41;100959.61;;;8.87;70.25
77537;BME280;67783;51.656;16.106;2023-12-20T04:59:43;100959.82;;;8.84;70.51
77537;BME280;67783;51.656;16.106;2023-12-20T05:02:48;100958.08;;;8.83;71.70
77537;BME280;67783;51.656;16.106;2023-12-20T05:05:49;100953.41;;;8.87;70.53
77537;BME280;67783;51.656;16.106;2023-12-20T05:08:51;100946.25;;;8.87;71.03
77537;BME280;67783;51.656;16.106;2023-12-20T05:11:53;100946.16;;;8.89;70.46
77537;BME280;67783;51.656;16.106;2023-12-20T05:14:54;100947.98;;;8.88;70.69
77537;BME280;67783;51.656;16.106;2023-12-20T05:17:56;100948.75;;;8.90;70.40
77537;BME280;67783;51.656;16.106;2023-12-20T05:20:57;100948.75;;;8.90;70.62
77537;BME280;67783;51.656;16.106;2023-12-20T05:24:03;100957.72;;;8.89;71.75
77537;BME280;67783;51.656;16.106;2023-12-20T05:27:05;100964.96;;;8.87;70.51
77537;BME280;67783;51.656;16.106;2023-12-20T05:30:07;100963.27;;;8.86;71.01
77537;BME280;67783;51.656;16.106;2023-12-20T05:33:09;100970.30;;;8.87;70.54
77537;BME280;67783;51.656;16.106;2023-12-20T05:36:10;100968.77;;;8.83;70.91
77537;BME280;67783;51.656;16.106;2023-12-20T05:39:23;100963.44;;;8.83;72.06
77537;BME280;67783;51.656;16.106;2023-12-20T05:42:25;100961.54;;;8.85;70.96
77537;BME280;67783;51.656;16.106;2023-12-20T05:45:26;100964.30;;;8.84;71.42
77537;BME280;67783;51.656;16.106;2023-12-20T05:48:28;100957.80;;;8.88;70.73
77537;BME280;67783;51.656;16.106;2023-12-20T05:51:29;100966.89;;;8.85;70.97
77537;BME280;67783;51.656;16.106;2023-12-20T05:54:31;100957.80;;;8.88;70.63
77537;BME280;67783;51.656;16.106;2023-12-20T05:57:34;100954.27;;;8.87;70.90
77537;BME280;67783;51.656;16.106;2023-12-20T06:00:38;100932.51;;;8.65;72.16
77537;BME280;67783;51.656;16.106;2023-12-20T06:03:43;100965.95;;;8.86;70.79
77537;BME280;67783;51.656;16.106;2023-12-20T06:06:46;100968.77;;;8.83;71.12
77537;BME280;67783;51.656;16.106;2023-12-20T06:09:48;100963.27;;;8.86;70.69
77537;BME280;67783;51.656;16.106;2023-12-20T06:12:49;100965.36;;;8.81;71.19
77537;BME280;67783;51.656;16.106;2023-12-20T06:15:59;100960.95;;;8.80;71.53
77537;BME280;67783;51.656;16.106;2023-12-20T06:19:00;100975.27;;;8.79;70.97
77537;BME280;67783;51.656;16.106;2023-12-20T06:22:02;100978.14;;;8.76;71.38
77537;BME280;67783;51.656;16.106;2023-12-20T06:25:04;100974.52;;;8.77;70.94
77537;BME280;67783;51.656;16.106;2023-12-20T06:28:07;100974.60;;;8.75;71.14
77537;BME280;67783;51.656;16.106;2023-12-20T06:31:19;100972.99;;;8.73;72.20
77537;BME280;67783;51.656;16.106;2023-12-20T06:34:21;100958.64;;;8.74;70.99
77537;BME280;67783;51.656;16.106;2023-12-20T06:37:22;100955.23;;;8.72;71.56
77537;BME280;67783;51.656;16.106;2023-12-20T06:40:26;100963.99;;;8.74;71.07
77537;BME280;67783;51.656;16.106;2023-12-20T06:43:28;100981.95;;;8.72;71.28
77537;BME280;67783;51.656;16.106;2023-12-20T06:46:40;100985.56;;;8.71;72.13
77537;BME280;67783;51.656;16.106;2023-12-20T06:49:42;100989.88;;;8.73;71.08
77537;BME280;67783;51.656;16.106;2023-12-20T06:52:43;100992.63;;;8.72;71.39
77537;BME280;67783;51.656;16.106;2023-12-20T06:55:45;100987.21;;;8.73;71.08
77537;BME280;67783;51.656;16.106;2023-12-20T06:58:46;100987.30;;;8.72;71.29
77537;BME280;67783;51.656;16.106;2023-12-20T07:01:49;100993.40;;;8.74;70.99
77537;BME280;67783;51.656;16.106;2023-12-20T07:07:48;101000.38;;;8.76;71.04
77537;BME280;67783;51.656;16.106;2023-12-20T07:10:49;101000.47;;;8.75;71.56
77537;BME280;67783;51.656;16.106;2023-12-20T07:13:51;100995.70;;;8.80;71.06
77537;BME280;67783;51.656;16.106;2023-12-20T07:16:52;100993.23;;;8.77;71.32
77537;BME280;67783;51.656;16.106;2023-12-20T07:19:54;100995.79;;;8.78;70.98
77537;BME280;67783;51.656;16.106;2023-12-20T07:22:55;101014.41;;;8.80;71.21
77537;BME280;67783;51.656;16.106;2023-12-20T07:26:03;101014.34;;;8.82;72.04
77537;BME280;67783;51.656;16.106;2023-12-20T07:29:05;101015.95;;;8.84;71.07
77537;BME280;67783;51.656;16.106;2023-12-20T07:32:07;101016.89;;;8.83;71.34
77537;BME280;67783;51.656;16.106;2023-12-20T07:35:09;101008.60;;;8.88;70.86
77537;BME280;67783;51.656;16.106;2023-12-20T07:38:11;101012.33;;;8.85;71.08
77537;BME280;67783;51.656;16.106;2023-12-20T07:41:23;101017.48;;;8.88;71.09
77537;BME280;67783;51.656;16.106;2023-12-20T07:44:25;101019.21;;;8.89;70.71
77537;BME280;67783;51.656;16.106;2023-12-20T07:47:26;101019.21;;;8.89;70.91
77537;BME280;67783;51.656;16.106;2023-12-20T07:50:28;101014.73;;;8.90;70.59
77537;BME280;67783;51.656;16.106;2023-12-20T07:53:29;101015.01;;;8.85;70.70
77537;BME280;67783;51.656;16.106;2023-12-20T07:56:31;101011.39;;;8.86;70.46
77537;BME280;67783;51.656;16.106;2023-12-20T07:59:33;101006.04;;;8.86;70.44
77537;BME280;67783;51.656;16.106;2023-12-20T08:02:38;101016.73;;;8.86;70.80
77537;BME280;67783;51.656;16.106;2023-12-20T08:05:39;101021.77;;;8.91;70.30
77537;BME280;67783;51.656;16.106;2023-12-20T08:08:41;101021.61;;;8.94;70.33
77537;BME280;67783;51.656;16.106;2023-12-20T08:11:47;101011.38;;;9.00;70.07
77537;BME280;67783;51.656;16.106;2023-12-20T08:14:48;101021.13;;;9.01;70.09
77537;BME280;67783;51.656;16.106;2023-12-20T08:17:58;101015.79;;;9.01;70.23
77537;BME280;67783;51.656;16.106;2023-12-20T08:21:00;101018.34;;;9.03;69.94
77537;BME280;67783;51.656;16.106;2023-12-20T08:24:03;101014.73;;;9.04;70.02
77537;BME280;67783;51.656;16.106;2023-12-20T08:27:05;101018.85;;;9.09;69.78
77537;BME280;67783;51.656;16.106;2023-12-20T08:30:08;101028.68;;;9.09;69.80
77537;BME280;67783;51.656;16.106;2023-12-20T08:33:19;101033.16;;;9.08;69.96
77537;BME280;67783;51.656;16.106;2023-12-20T08:36:21;101044.64;;;9.10;69.68
77537;BME280;67783;51.656;16.106;2023-12-20T08:39:24;101040.25;;;9.09;69.60
77537;BME280;67783;51.656;16.106;2023-12-20T08:42:26;101048.19;;;9.11;69.46
77537;BME280;67783;51.656;16.106;2023-12-20T08:45:32;101051.81;;;9.10;69.25
77537;BME280;67783;51.656;16.106;2023-12-20T08:48:40;101047.48;;;9.07;69.23
77537;BME280;67783;51.656;16.106;2023-12-20T08:51:41;101046.74;;;9.05;69.23
77537;BME280;67783;51.656;16.106;2023-12-20T08:54:43;101053.03;;;9.04;69.08
77537;BME280;67783;51.656;16.106;2023-12-20T08:57:45;101056.48;;;9.06;68.98
77537;BME280;67783;51.656;16.106;2023-12-20T09:00:47;101059.33;;;9.03;68.85
77537;BME280;67783;51.656;16.106;2023-12-20T09:03:49;101053.98;;;9.03;68.77
77537;BME280;67783;51.656;16.106;2023-12-20T09:06:50;101044.34;;;9.01;68.56
77537;BME280;67783;51.656;16.106;2023-12-20T09:09:55;101041.66;;;9.01;68.16
77537;BME280;67783;51.656;16.106;2023-12-20T09:12:57;101039.66;;;9.04;68.39
77537;BME280;67783;51.656;16.106;2023-12-20T09:15:59;101048.54;;;9.05;67.98
77537;BME280;67783;51.656;16.106;2023-12-20T09:19:01;101042.14;;;9.07;67.52
77537;BME280;67783;51.656;16.106;2023-12-20T09:22:03;101052.27;;;9.02;67.07
77537;BME280;67783;51.656;16.106;2023-12-20T09:25:05;101036.40;;;8.99;67.01
77537;BME280;67783;51.656;16.106;2023-12-20T09:28:07;101032.02;;;8.98;66.81
77537;BME280;67783;51.656;16.106;2023-12-20T09:31:12;101030.10;;;9.00;65.04
77537;BME280;67783;51.656;16.106;2023-12-20T09:34:15;101025.15;;;9.08;66.47
77537;BME280;67783;51.656;16.106;2023-12-20T09:37:27;101032.89;;;9.13;66.04
77537;BME280;67783;51.656;16.106;2023-12-20T09:40:41;101028.99;;;9.18;64.88
77537;BME280;67783;51.656;16.106;2023-12-20T09:43:43;101025.63;;;9.29;66.09
77537;BME280;67783;51.656;16.106;2023-12-20T09:46:49;101017.24;;;9.35;65.42
77537;BME280;67783;51.656;16.106;2023-12-20T09:49:51;101019.63;;;9.40;65.55
77537;BME280;67783;51.656;16.106;2023-12-20T09:52:54;101016.95;;;9.40;65.40
77537;BME280;67783;51.656;16.106;2023-12-20T09:55:59;101019.71;;;9.38;63.87
77537;BME280;67783;51.656;16.106;2023-12-20T09:59:04;101004.34;;;9.28;65.48
77537;BME280;67783;51.656;16.106;2023-12-20T10:02:12;101009.88;;;9.39;65.00
77537;BME280;67783;51.656;16.106;2023-12-20T10:05:16;101006.99;;;9.42;65.17
77537;BME280;67783;51.656;16.106;2023-12-20T10:08:22;100996.29;;;9.42;64.98
77537;BME280;67783;51.656;16.106;2023-12-20T10:11:26;100993.82;;;9.39;63.73
77537;BME280;67783;51.656;16.106;2023-12-20T10:14:29;100981.02;;;9.44;65.09
77537;BME280;67783;51.656;16.106;2023-12-20T10:17:31;100988.05;;;9.45;64.84
77537;BME280;67783;51.656;16.106;2023-12-20T10:20:34;100982.54;;;9.48;65.04
77537;BME280;67783;51.656;16.106;2023-12-20T10:23:35;100969.24;;;9.46;64.84
77537;BME280;67783;51.656;16.106;2023-12-20T10:26:47;100973.73;;;9.46;64.26
77537;BME280;67783;51.656;16.106;2023-12-20T10:29:49;100970.10;;;9.47;65.17
77537;BME280;67783;51.656;16.106;2023-12-20T10:32:50;100969.32;;;9.45;64.75
77537;BME280;67783;51.656;16.106;2023-12-20T10:35:52;100968.38;;;9.46;65.17
77537;BME280;67783;51.656;16.106;2023-12-20T10:38:56;100970.30;;;9.44;64.97
77537;BME280;67783;51.656;16.106;2023-12-20T10:42:09;100968.59;;;9.43;64.58
77537;BME280;67783;51.656;16.106;2023-12-20T10:45:12;100956.16;;;9.42;65.14
77537;BME280;67783;51.656;16.106;2023-12-20T10:48:15;100950.80;;;9.42;65.10
77537;BME280;67783;51.656;16.106;2023-12-20T10:51:18;100947.84;;;9.46;65.18
77537;BME280;67783;51.656;16.106;2023-12-20T10:54:21;100955.57;;;9.51;65.04
77537;BME280;67783;51.656;16.106;2023-12-20T10:57:29;100937.41;;;9.56;64.70
77537;BME280;67783;51.656;16.106;2023-12-20T11:00:31;100947.13;;;9.57;65.07
77537;BME280;67783;51.656;16.106;2023-12-20T11:03:35;100934.16;;;9.51;65.04
77537;BME280;67783;51.656;16.106;2023-12-20T11:10:00;100939.15;;;9.43;65.42
77537;BME280;67783;51.656;16.106;2023-12-20T11:13:19;100944.80;;;9.38;65.76
77537;BME280;67783;51.656;16.106;2023-12-20T11:16:31;100938.02;;;9.33;66.02
77537;BME280;67783;51.656;16.106;2023-12-20T11:19:36;100929.45;;;9.28;66.00
77537;BME280;67783;51.656;16.106;2023-12-20T11:22:38;100930.02;;;9.18;66.32
77537;BME280;67783;51.656;16.106;2023-12-20T11:28:53;100923.64;;;9.07;66.82
77537;BME280;67783;51.656;16.106;2023-12-20T11:32:00;100912.37;;;9.02;67.65
77537;BME280;67783;51.656;16.106;2023-12-20T11:38:15;100905.74;;;9.07;66.95
77537;BME280;67783;51.656;16.106;2023-12-20T11:41:26;100907.59;;;9.07;67.06
77537;BME280;67783;51.656;16.106;2023-12-20T11:44:30;100895.05;;;9.07;66.88
77537;BME280;67783;51.656;16.106;2023-12-20T11:47:33;100882.83;;;9.03;67.21
77537;BME280;67783;51.656;16.106;2023-12-20T11:50:36;100881.22;;;9.15;67.00
77537;BME280;67783;51.656;16.106;2023-12-20T11:53:37;100885.20;;;9.22;66.95
77537;BME280;67783;51.656;16.106;2023-12-20T11:56:46;100872.20;;;9.30;66.85
77537;BME280;67783;51.656;16.106;2023-12-20T11:59:48;100868.45;;;9.33;66.89
77537;BME280;67783;51.656;16.106;2023-12-20T12:02:57;100855.06;;;9.33;66.47
77537;BME280;67783;51.656;16.106;2023-12-20T12:05:58;100868.45;;;9.33;66.29
77537;BME280;67783;51.656;16.106;2023-12-20T12:09:03;100851.66;;;9.31;66.41
77537;BME280;67783;51.656;16.106;2023-12-20T12:12:08;100856.59;;;9.37;66.13
77537;BME280;67783;51.656;16.106;2023-12-20T12:15:10;100848.48;;;9.38;66.12
77537;BME280;67783;51.656;16.106;2023-12-20T12:18:18;100836.91;;;9.38;65.68
77537;BME280;67783;51.656;16.106;2023-12-20T12:21:20;100827.72;;;9.42;65.74
77537;BME280;67783;51.656;16.106;2023-12-20T12:24:24;100833.94;;;9.42;65.64
77537;BME280;67783;51.656;16.106;2023-12-20T12:27:29;100831.34;;;9.41;65.45
77537;BME280;67783;51.656;16.106;2023-12-20T12:30:31;100825.35;;;9.37;65.39
77537;BME280;67783;51.656;16.106;2023-12-20T12:33:33;100826.42;;;9.35;65.40
77537;BME280;67783;51.656;16.106;2023-12-20T12:36:34;100819.99;;;9.37;65.48
77537;BME280;67783;51.656;16.106;2023-12-20T12:39:36;100826.42;;;9.35;65.13
77537;BME280;67783;51.656;16.106;2023-12-20T12:42:38;100818.48;;;9.33;65.37
77537;BME280;67783;51.656;16.106;2023-12-20T12:45:39;100822.97;;;9.33;65.13
77537;BME280;67783;51.656;16.106;2023-12-20T12:48:44;100816.88;;;9.31;64.74
77537;BME280;67783;51.656;16.106;2023-12-20T12:51:47;100816.97;;;9.29;65.19
77537;BME280;67783;51.656;16.106;2023-12-20T12:54:49;100799.20;;;9.28;64.74
77537;BME280;67783;51.656;16.106;2023-12-20T12:57:50;100800.62;;;9.34;65.05
77537;BME280;67783;51.656;16.106;2023-12-20T13:00:52;100800.62;;;9.34;64.90
77537;BME280;67783;51.656;16.106;2023-12-20T13:04:05;100795.18;;;9.35;64.39
77537;BME280;67783;51.656;16.106;2023-12-20T13:07:12;100796.99;;;9.35;64.86
77537;BME280;67783;51.656;16.106;2023-12-20T13:10:14;100804.06;;;9.36;64.45
77537;BME280;67783;51.656;16.106;2023-12-20T13:13:18;100788.76;;;9.38;64.44
77537;BME280;67783;51.656;16.106;2023-12-20T13:16:19;100790.48;;;9.39;64.12
77537;BME280;67783;51.656;16.106;2023-12-20T13:19:25;100784.05;;;9.41;63.52
77537;BME280;67783;51.656;16.106;2023-12-20T13:22:27;100773.35;;;9.41;63.99
77537;BME280;67783;51.656;16.106;2023-12-20T13:25:29;100774.21;;;9.42;63.94
77537;BME280;67783;51.656;16.106;2023-12-20T13:28:31;100774.00;;;9.45;64.13
77537;BME280;67783;51.656;16.106;2023-12-20T13:31:33;100774.21;;;9.42;63.81
77537;BME280;67783;51.656;16.106;2023-12-20T13:34:46;100760.09;;;9.40;62.59
77537;BME280;67783;51.656;16.106;2023-12-20T13:37:49;100759.02;;;9.42;63.57
77537;BME280;67783;51.656;16.106;2023-12-20T13:40:50;100756.43;;;9.41;63.40
77537;BME280;67783;51.656;16.106;2023-12-20T13:43:52;100763.50;;;9.42;63.48
77537;BME280;67783;51.656;16.106;2023-12-20T13:46:55;100765.45;;;9.40;63.27
77537;BME280;67783;51.656;16.106;2023-12-20T13:50:07;100759.97;;;9.41;62.84
77537;BME280;67783;51.656;16.106;2023-12-20T13:53:11;100748.53;;;9.39;63.50
77537;BME280;67783;51.656;16.106;2023-12-20T13:56:12;100749.57;;;9.37;63.35
77537;BME280;67783;51.656;16.106;2023-12-20T13:59:16;100744.13;;;9.38;63.47
77537;BME280;67783;51.656;16.106;2023-12-20T14:02:18;100748.70;;;9.36;63.15
77537;BME280;67783;51.656;16.106;2023-12-20T14:05:27;100742.71;;;9.33;62.61
77537;BME280;67783;51.656;16.106;2023-12-20T14:08:29;100741.02;;;9.32;63.37
77537;BME280;67783;51.656;16.106;2023-12-20T14:11:31;100749.05;;;9.32;62.97
77537;BME280;67783;51.656;16.106;2023-12-20T14:14:32;100741.85;;;9.32;63.06
77537;BME280;67783;51.656;16.106;2023-12-20T14:17:34;100758.77;;;9.33;62.96
77537;BME280;67783;51.656;16.106;2023-12-20T14:20:35;100759.63;;;9.33;63.05
77537;BME280;67783;51.656;16.106;2023-12-20T14:23:37;100750.00;;;9.31;63.09
77537;BME280;67783;51.656;16.106;2023-12-20T14:26:42;100728.81;;;9.28;62.05
77537;BME280;67783;51.656;16.106;2023-12-20T14:29:44;100725.37;;;9.25;63.06
77537;BME280;67783;51.656;16.106;2023-12-20T14:32:45;100711.23;;;9.23;62.88
77537;BME280;67783;51.656;16.106;2023-12-20T14:35:49;100718.52;;;9.21;63.12
77537;BME280;67783;51.656;16.106;2023-12-20T14:38:51;100709.93;;;9.16;62.93
77537;BME280;67783;51.656;16.106;2023-12-20T14:42:03;100700.52;;;9.11;62.34
77537;BME280;67783;51.656;16.106;2023-12-20T14:45:05;100702.64;;;9.06;63.15
77537;BME280;67783;51.656;16.106;2023-12-20T14:48:07;100700.27;;;9.01;62.87
77537;BME280;67783;51.656;16.106;2023-12-20T14:51:09;100697.59;;;9.01;63.06
77537;BME280;67783;51.656;16.106;2023-12-20T14:54:12;100684.43;;;8.98;62.94
77537;BME280;67783;51.656;16.106;2023-12-20T14:57:23;100684.53;;;8.97;62.36
77537;BME280;67783;51.656;16.106;2023-12-20T15:00:25;100684.83;;;8.92;62.78
77537;BME280;67783;51.656;16.106;2023-12-20T15:03:27;100683.32;;;8.88;62.72
77537;BME280;67783;51.656;16.106;2023-12-20T15:06:31;100677.97;;;8.88;62.92
77537;BME280;67783;51.656;16.106;2023-12-20T15:09:34;100683.32;;;8.88;62.63
77537;BME280;67783;51.656;16.106;2023-12-20T15:12:44;100677.97;;;8.88;61.72
77537;BME280;67783;51.656;16.106;2023-12-20T15:15:48;100678.41;;;8.95;62.55
77537;BME280;67783;51.656;16.106;2023-12-20T15:18:50;100663.22;;;8.95;61.91
77537;BME280;67783;51.656;16.106;2023-12-20T15:21:51;100662.83;;;9.01;62.24
77537;BME280;67783;51.656;16.106;2023-12-20T15:24:53;100659.08;;;9.04;62.10
77537;BME280;67783;51.656;16.106;2023-12-20T15:28:05;100672.14;;;9.08;61.54
77537;BME280;67783;51.656;16.106;2023-12-20T15:31:07;100670.77;;;9.15;61.97
77537;BME280;67783;51.656;16.106;2023-12-20T15:34:09;100680.51;;;9.16;61.53
77537;BME280;67783;51.656;16.106;2023-12-20T15:37:12;100681.07;;;9.21;61.94
77537;BME280;67783;51.656;16.106;2023-12-20T15:40:14;100686.41;;;9.21;62.14
77537;BME280;67783;51.656;16.106;2023-12-20T15:43:25;100675.71;;;9.21;61.87
77537;BME280;67783;51.656;16.106;2023-12-20T15:46:28;100657.95;;;9.20;62.18
77537;BME280;67783;51.656;16.106;2023-12-20T15:49:30;100649.28;;;9.17;61.96
77537;BME280;67783;51.656;16.106;2023-12-20T15:52:31;100649.93;;;9.20;62.18
77537;BME280;67783;51.656;16.106;2023-12-20T15:55:33;100650.77;;;9.21;62.04
77537;BME280;67783;51.656;16.106;2023-12-20T15:58:38;100647.03;;;9.23;62.11
77537;BME280;67783;51.656;16.106;2023-12-20T16:01:43;100638.18;;;9.23;61.80
77537;BME280;67783;51.656;16.106;2023-12-20T16:04:48;100634.64;;;9.22;60.79
77537;BME280;67783;51.656;16.106;2023-12-20T16:07:52;100642.54;;;9.24;61.58
77537;BME280;67783;51.656;16.106;2023-12-20T16:10:54;100651.42;;;9.24;61.28